Time;durP1;ratioP1;P1;durP2;ratioP2;P2;SDS_P1;SDS_P2;PMS_P1;PMS_P2;Temp;Humidity;BMP_temperature;BMP_pressure;BME280_temperature;BME280_humidity;BME280_pressure;Samples;Min_cycle;Max_cycle;Signal;HPM_P1;HPM_P2
2022/07/12 00:02:50;;;;;;;2.67;1.23;;;;;;;;;;6281905;28;20061;-71
2022/07/12 00:05:53;;;;;;;2.65;1.30;;;;;;;;;;6278484;28;20049;-71
2022/07/12 00:08:55;;;;;;;4.75;1.55;;;;;;;;;;6274353;28;20048;-71
2022/07/12 00:11:57;;;;;;;4.78;1.42;;;;;;;;;;6278635;28;20095;-71
2022/07/12 00:14:59;;;;;;;5.95;1.58;;;;;;;;;;6272516;28;20053;-77
2022/07/12 00:18:01;;;;;;;2.55;1.15;;;;;;;;;;6273609;28;20052;-72
2022/07/12 00:21:04;;;;;;;2.75;1.10;;;;;;;;;;6277817;28;20052;-78
2022/07/12 00:24:06;;;;;;;3.88;1.13;;;;;;;;;;6280182;28;20044;-71
2022/07/12 00:27:08;;;;;;;12.40;1.85;;;;;;;;;;6272294;28;20052;-73
2022/07/12 00:30:10;;;;;;;2.80;1.15;;;;;;;;;;6276745;28;20057;-71
2022/07/12 00:33:12;;;;;;;2.30;0.98;;;;;;;;;;6276803;28;20053;-71
2022/07/12 00:36:15;;;;;;;2.83;1.10;;;;;;;;;;6281125;28;20048;-72
2022/07/12 00:39:17;;;;;;;7.10;1.27;;;;;;;;;;6277805;28;20271;-71
2022/07/12 00:42:18;;;;;;;2.08;1.10;;;;;;;;;;6277839;28;20224;-71
2022/07/12 00:45:20;;;;;;;3.53;1.40;;;;;;;;;;6277039;28;20065;-73
2022/07/12 00:48:22;;;;;;;3.05;1.05;;;;;;;;;;6278781;28;20076;-72
2022/07/12 00:51:25;;;;;;;4.25;1.30;;;;;;;;;;6270742;28;20057;-72
2022/07/12 00:54:27;;;;;;;3.78;1.20;;;;;;;;;;6277522;28;20340;-72
2022/07/12 00:57:29;;;;;;;3.03;1.10;;;;;;;;;;6273170;28;20053;-79
2022/07/12 01:00:31;;;;;;;3.53;1.23;;;;;;;;;;6275829;28;20052;-70
2022/07/12 01:03:33;;;;;;;3.33;1.10;;;;;;;;;;6276359;28;20324;-70
2022/07/12 01:06:36;;;;;;;4.32;1.25;;;;;;;;;;6275331;28;20059;-70
2022/07/12 01:09:39;;;;;;;3.05;0.95;;;;;;;;;;6280869;28;20052;-70
2022/07/12 01:12:41;;;;;;;3.42;1.15;;;;;;;;;;6275966;28;20052;-71
2022/07/12 01:15:43;;;;;;;2.33;1.20;;;;;;;;;;6272995;28;20396;-77
2022/07/12 01:18:45;;;;;;;3.25;1.40;;;;;;;;;;6276673;28;20048;-73
2022/07/12 01:21:49;;;;;;;4.45;1.08;;;;;;;;;;6279937;28;20052;-70
2022/07/12 01:24:52;;;;;;;4.35;1.00;;;;;;;;;;6277583;28;20065;-71
2022/07/12 01:27:54;;;;;;;2.17;0.77;;;;;;;;;;6279465;28;20056;-71
2022/07/12 01:30:56;;;;;;;1.95;0.90;;;;;;;;;;6278092;28;20061;-70
2022/07/12 01:33:58;;;;;;;3.58;1.13;;;;;;;;;;6277647;28;20060;-75
2022/07/12 01:37:00;;;;;;;5.67;1.37;;;;;;;;;;6282525;28;20047;-71
2022/07/12 01:40:05;;;;;;;2.85;1.20;;;;;;;;;;6274934;28;20490;-73
2022/07/12 01:43:07;;;;;;;6.28;1.77;;;;;;;;;;6281739;28;20044;-72
2022/07/12 01:46:09;;;;;;;6.90;1.13;;;;;;;;;;6274945;28;20068;-70
2022/07/12 01:49:10;;;;;;;2.88;0.90;;;;;;;;;;6272738;28;20049;-73
2022/07/12 01:52:12;;;;;;;3.97;1.00;;;;;;;;;;6275571;28;20339;-72
2022/07/12 01:55:15;;;;;;;3.13;1.23;;;;;;;;;;6281945;28;20064;-74
2022/07/12 01:58:17;;;;;;;3.80;0.93;;;;;;;;;;6274600;28;20271;-76
2022/07/12 02:01:19;;;;;;;2.10;1.10;;;;;;;;;;6282230;28;20248;-75
2022/07/12 02:04:21;;;;;;;3.17;1.00;;;;;;;;;;6283517;28;20041;-77
2022/07/12 02:07:24;;;;;;;2.85;1.00;;;;;;;;;;6280056;28;20060;-75
2022/07/12 02:10:28;;;;;;;2.08;1.00;;;;;;;;;;6280614;28;20041;-72
2022/07/12 02:13:29;;;;;;;2.13;1.02;;;;;;;;;;6283209;28;20049;-71
2022/07/12 02:16:31;;;;;;;1.92;0.80;;;;;;;;;;6279650;28;20071;-72
2022/07/12 02:19:33;;;;;;;2.45;1.00;;;;;;;;;;6279036;28;20072;-77
2022/07/12 02:22:34;;;;;;;1.27;0.85;;;;;;;;;;6276663;28;20236;-71
2022/07/12 02:25:37;;;;;;;5.05;1.02;;;;;;;;;;6280109;28;20076;-79
2022/07/12 02:28:39;;;;;;;1.58;0.98;;;;;;;;;;6279352;28;20060;-74
2022/07/12 02:31:41;;;;;;;1.70;1.00;;;;;;;;;;6288209;28;20041;-72
2022/07/12 02:34:42;;;;;;;3.17;1.65;;;;;;;;;;6278290;28;20239;-74
2022/07/12 02:37:44;;;;;;;1.77;1.00;;;;;;;;;;6277929;28;20343;-83
2022/07/12 02:40:56;;;;;;;2.10;0.90;;;;;;;;;;6278728;28;20060;-72
2022/07/12 02:43:58;;;;;;;3.72;1.08;;;;;;;;;;6276278;28;20040;-72
2022/07/12 02:47:00;;;;;;;4.97;1.10;;;;;;;;;;6280457;28;20618;-73
2022/07/12 02:50:02;;;;;;;1.30;0.85;;;;;;;;;;6278974;28;20236;-72
2022/07/12 02:53:04;;;;;;;4.32;1.20;;;;;;;;;;6277942;28;20055;-72
2022/07/12 02:56:08;;;;;;;2.90;1.10;;;;;;;;;;6279645;28;20053;-72
2022/07/12 02:59:10;;;;;;;3.35;0.95;;;;;;;;;;6278218;28;20510;-72
2022/07/12 03:02:11;;;;;;;1.30;0.90;;;;;;;;;;6280735;28;20371;-72
2022/07/12 03:05:13;;;;;;;1.77;0.90;;;;;;;;;;6252028;28;20037;-71
2022/07/12 03:08:15;;;;;;;3.42;1.00;;;;;;;;;;6252406;28;20100;-73
2022/07/12 03:11:18;;;;;;;3.08;1.10;;;;;;;;;;6254493;28;20056;-72
2022/07/12 03:14:20;;;;;;;5.70;1.75;;;;;;;;;;6253894;28;20057;-73
2022/07/12 03:17:21;;;;;;;1.63;0.80;;;;;;;;;;6250484;28;20049;-72
2022/07/12 03:20:23;;;;;;;1.70;1.30;;;;;;;;;;6255892;28;20342;-72
2022/07/12 03:23:25;;;;;;;6.90;1.40;;;;;;;;;;6254294;28;20233;-73
2022/07/12 03:26:28;;;;;;;3.83;1.25;;;;;;;;;;6253262;28;20328;-72
2022/07/12 03:29:29;;;;;;;3.03;1.42;;;;;;;;;;6253941;28;20052;-73
2022/07/12 03:32:31;;;;;;;2.63;1.33;;;;;;;;;;6258368;28;20052;-72
2022/07/12 03:35:33;;;;;;;2.00;1.05;;;;;;;;;;6256935;28;20052;-77
2022/07/12 03:38:34;;;;;;;2.65;1.00;;;;;;;;;;6250686;28;20049;-73
2022/07/12 03:41:37;;;;;;;2.50;1.17;;;;;;;;;;6254542;28;20053;-73
2022/07/12 03:44:39;;;;;;;2.78;1.05;;;;;;;;;;6252437;28;20053;-72
2022/07/12 03:47:41;;;;;;;1.73;1.15;;;;;;;;;;6252649;28;20679;-72
2022/07/12 03:50:43;;;;;;;2.95;0.90;;;;;;;;;;6251601;28;20052;-72
2022/07/12 03:53:44;;;;;;;4.85;1.30;;;;;;;;;;6252920;28;20053;-72
2022/07/12 04:00:10;;;;;;;1.70;1.13;;;;;;;;;;6248152;28;20112;-73
2022/07/12 04:03:12;;;;;;;3.38;1.00;;;;;;;;;;6250583;28;20059;-73
2022/07/12 04:06:14;;;;;;;3.75;1.30;;;;;;;;;;6251532;28;20121;-72
2022/07/12 04:09:15;;;;;;;2.75;1.25;;;;;;;;;;6249143;28;20045;-84
2022/07/12 04:12:18;;;;;;;4.15;1.38;;;;;;;;;;6248885;28;20053;-72
2022/07/12 04:15:20;;;;;;;3.17;1.33;;;;;;;;;;6251528;28;20049;-73
2022/07/12 04:18:22;;;;;;;6.28;1.40;;;;;;;;;;6255704;28;20256;-72
2022/07/12 04:21:23;;;;;;;3.55;1.58;;;;;;;;;;6252592;28;20050;-74
2022/07/12 04:24:25;;;;;;;2.42;1.17;;;;;;;;;;6257293;28;20049;-72
2022/07/12 04:27:28;;;;;;;4.03;1.30;;;;;;;;;;6259649;28;20046;-77
2022/07/12 04:30:30;;;;;;;2.42;1.13;;;;;;;;;;6256800;28;20328;-72
2022/07/12 04:33:32;;;;;;;3.25;1.30;;;;;;;;;;6253859;28;20053;-81
2022/07/12 04:36:35;;;;;;;1.88;1.10;;;;;;;;;;6254128;28;20060;-73
2022/07/12 04:39:36;;;;;;;4.65;1.33;;;;;;;;;;6256297;28;20102;-74
2022/07/12 04:42:40;;;;;;;4.55;1.52;;;;;;;;;;6256998;28;20336;-72
2022/07/12 04:45:43;;;;;;;6.25;1.15;;;;;;;;;;6254194;28;20052;-75
2022/07/12 04:48:45;;;;;;;4.03;1.52;;;;;;;;;;6251331;28;20331;-73
2022/07/12 04:51:47;;;;;;;3.40;1.20;;;;;;;;;;6253329;28;20046;-74
2022/07/12 04:54:48;;;;;;;4.28;1.10;;;;;;;;;;6250459;28;20048;-76
2022/07/12 04:57:51;;;;;;;4.05;1.17;;;;;;;;;;6250716;28;20049;-73
2022/07/12 05:00:53;;;;;;;5.75;1.35;;;;;;;;;;6259341;28;20045;-73
2022/07/12 05:03:55;;;;;;;5.95;1.20;;;;;;;;;;6273395;28;20061;-70
2022/07/12 05:06:56;;;;;;;4.60;1.20;;;;;;;;;;6280887;28;20214;-74
2022/07/12 05:09:58;;;;;;;6.10;1.20;;;;;;;;;;6282798;28;20111;-78
2022/07/12 05:13:01;;;;;;;2.50;1.00;;;;;;;;;;6289088;28;20045;-71
2022/07/12 05:16:03;;;;;;;1.77;1.10;;;;;;;;;;6285095;28;20056;-72
2022/07/12 05:19:04;;;;;;;3.20;1.10;;;;;;;;;;6283518;28;20044;-73
2022/07/12 05:22:06;;;;;;;2.92;1.10;;;;;;;;;;6280707;28;20044;-73
2022/07/12 05:25:09;;;;;;;3.95;1.40;;;;;;;;;;6281105;28;20095;-72
2022/07/12 05:28:12;;;;;;;6.13;1.98;;;;;;;;;;6277116;28;20049;-72
2022/07/12 05:31:14;;;;;;;3.75;1.23;;;;;;;;;;6279875;28;20126;-72
2022/07/12 05:34:15;;;;;;;4.70;1.30;;;;;;;;;;6280536;28;20041;-73
2022/07/12 05:37:17;;;;;;;2.65;1.48;;;;;;;;;;6278259;28;20094;-73
2022/07/12 05:40:19;;;;;;;2.00;1.38;;;;;;;;;;6280525;28;20045;-74
2022/07/12 05:43:22;;;;;;;2.55;1.15;;;;;;;;;;6279640;28;20147;-77
2022/07/12 05:46:24;;;;;;;4.60;1.45;;;;;;;;;;6281062;28;20063;-72
2022/07/12 05:49:26;;;;;;;2.80;1.25;;;;;;;;;;6284534;28;20331;-73
2022/07/12 05:55:47;;;;;;;2.38;1.10;;;;;;;;;;6282327;28;20045;-74
2022/07/12 05:58:50;;;;;;;8.10;1.55;;;;;;;;;;6283808;28;20235;-77
2022/07/12 06:01:51;;;;;;;;;;;;;;;;;;6282961;28;20049;-75
2022/07/12 06:04:53;;;;;;;4.60;1.40;;;;;;;;;;6277027;28;19936;-74
2022/07/12 06:07:55;;;;;;;3.00;1.35;;;;;;;;;;6284129;28;20103;-83
2022/07/12 06:10:56;;;;;;;6.05;1.15;;;;;;;;;;6284973;28;20090;-75
2022/07/12 06:13:59;;;;;;;5.18;1.30;;;;;;;;;;6283837;28;20064;-84
2022/07/12 06:17:01;;;;;;;3.05;1.00;;;;;;;;;;6280228;28;20052;-85
2022/07/12 06:20:04;;;;;;;1.95;1.17;;;;;;;;;;6278204;28;20049;-88
2022/07/12 06:23:05;;;;;;;4.22;1.13;;;;;;;;;;6281615;28;20044;-88
2022/07/12 06:26:07;;;;;;;4.78;1.25;;;;;;;;;;6282533;28;20065;-88
2022/07/12 06:29:10;;;;;;;3.25;1.20;;;;;;;;;;6283290;28;20086;-88
2022/07/12 06:32:12;;;;;;;3.03;1.15;;;;;;;;;;6281804;28;20048;-87
2022/07/12 06:35:14;;;;;;;2.08;1.35;;;;;;;;;;6276782;28;20072;-86
2022/07/12 06:38:15;;;;;;;2.40;1.08;;;;;;;;;;6280075;28;20220;-89
2022/07/12 06:41:17;;;;;;;2.65;1.35;;;;;;;;;;6281486;28;20053;-88
2022/07/12 06:44:20;;;;;;;5.63;1.20;;;;;;;;;;6278163;28;20052;-88
2022/07/12 06:47:22;;;;;;;2.90;1.35;;;;;;;;;;6279453;28;20045;-89
2022/07/12 06:50:24;;;;;;;5.40;1.30;;;;;;;;;;6280894;28;20336;-87
2022/07/12 06:53:26;;;;;;;4.18;1.30;;;;;;;;;;6284081;28;20320;-89
2022/07/12 06:56:27;;;;;;;3.15;1.35;;;;;;;;;;6276482;28;20372;-89
2022/07/12 06:59:30;;;;;;;2.40;1.20;;;;;;;;;;6282653;28;20099;-88
2022/07/12 07:02:32;;;;;;;4.30;1.15;;;;;;;;;;6283016;28;20231;-87
2022/07/12 07:05:34;;;;;;;4.78;1.33;;;;;;;;;;6280965;28;20052;-88
2022/07/12 07:08:35;;;;;;;3.33;1.52;;;;;;;;;;6276851;28;20053;-87
2022/07/12 07:11:37;;;;;;;3.63;1.30;;;;;;;;;;6279801;28;20109;-86
2022/07/12 07:14:40;;;;;;;5.82;1.50;;;;;;;;;;6284108;28;20336;-79
2022/07/12 07:17:42;;;;;;;3.33;1.13;;;;;;;;;;6278572;28;20048;-85
2022/07/12 07:20:44;;;;;;;5.30;1.35;;;;;;;;;;6278668;28;20049;-86
2022/07/12 07:23:46;;;;;;;4.32;1.23;;;;;;;;;;6278636;28;20116;-88
2022/07/12 07:26:47;;;;;;;3.42;1.52;;;;;;;;;;6276879;28;20052;-87
2022/07/12 07:33:09;;;;;;;2.70;1.45;;;;;;;;;;6282195;28;20041;-85
2022/07/12 07:36:11;;;;;;;5.80;1.35;;;;;;;;;;6274332;28;20053;-84
2022/07/12 07:39:13;;;;;;;2.38;1.05;;;;;;;;;;6271813;28;21362;-85
2022/07/12 07:42:15;;;;;;;2.22;1.25;;;;;;;;;;6273330;28;20335;-82
2022/07/12 07:45:18;;;;;;;3.35;1.30;;;;;;;;;;6271545;28;20053;-85
2022/07/12 07:48:20;;;;;;;;;;;;;;;;;;6274094;28;20064;-85
2022/07/12 07:51:21;;;;;;;6.45;1.75;;;;;;;;;;6273537;28;19947;-79
2022/07/12 07:54:23;;;;;;;4.40;1.38;;;;;;;;;;6271486;28;20045;-84
2022/07/12 07:57:25;;;;;;;2.00;1.20;;;;;;;;;;6274057;28;20056;-82
2022/07/12 08:00:28;;;;;;;4.90;1.42;;;;;;;;;;6270475;28;20064;-83
2022/07/12 08:03:29;;;;;;;;;;;;;;;;;;6272417;28;20058;-85
2022/07/12 08:06:31;;;;;;;3.08;1.25;;;;;;;;;;6274201;28;20158;-86
2022/07/12 08:09:33;;;;;;;4.47;1.60;;;;;;;;;;6283084;28;20339;-84
2022/07/12 08:12:34;;;;;;;3.50;1.42;;;;;;;;;;6278603;28;20044;-86
2022/07/12 08:15:37;;;;;;;4.25;1.50;;;;;;;;;;6281400;28;20091;-86
2022/07/12 08:18:39;;;;;;;5.88;1.20;;;;;;;;;;6271973;28;20048;-85
2022/07/12 08:21:41;;;;;;;3.22;1.10;;;;;;;;;;6270806;28;20328;-85
2022/07/12 08:24:42;;;;;;;8.90;1.33;;;;;;;;;;6274607;28;20213;-84
2022/07/12 08:27:44;;;;;;;4.05;1.30;;;;;;;;;;6273023;28;20059;-82
2022/07/12 08:30:47;;;;;;;6.00;1.45;;;;;;;;;;6271523;28;20340;-80
2022/07/12 08:33:49;;;;;;;4.13;1.20;;;;;;;;;;6272577;28;20053;-81
2022/07/12 08:36:50;;;;;;;3.08;1.10;;;;;;;;;;6278155;28;20057;-85
2022/07/12 08:39:52;;;;;;;3.92;1.65;;;;;;;;;;6279068;28;20053;-80
2022/07/12 08:42:57;;;;;;;3.47;1.50;;;;;;;;;;6276295;28;20060;-80
2022/07/12 08:46:05;;;;;;;4.45;1.40;;;;;;;;;;6276081;28;20130;-84
2022/07/12 08:49:08;;;;;;;2.83;1.30;;;;;;;;;;6277937;28;20071;-86
2022/07/12 08:52:25;;;;;;;2.75;1.38;;;;;;;;;;6278561;28;20102;-83
2022/07/12 08:55:29;;;;;;;4.03;1.25;;;;;;;;;;6276983;28;21444;-85
2022/07/12 08:58:30;;;;;;;2.67;1.20;;;;;;;;;;6278594;28;20045;-82
2022/07/12 09:01:45;;;;;;;4.55;1.58;;;;;;;;;;6280139;28;20057;-85
2022/07/12 09:04:47;;;;;;;5.70;1.25;;;;;;;;;;6281064;28;20048;-82
2022/07/12 09:07:49;;;;;;;4.60;1.20;;;;;;;;;;6280724;28;20050;-83
2022/07/12 09:10:56;;;;;;;3.37;1.27;;;;;;;;;;6279951;28;20049;-87
2022/07/12 09:13:58;;;;;;;5.80;1.50;;;;;;;;;;6278002;28;20482;-83
2022/07/12 09:17:04;;;;;;;2.15;1.10;;;;;;;;;;6282744;28;20362;-84
2022/07/12 09:20:10;;;;;;;2.65;1.20;;;;;;;;;;6281451;28;20064;-83
2022/07/12 09:23:12;;;;;;;6.93;1.42;;;;;;;;;;6283182;28;20052;-90
2022/07/12 09:26:17;;;;;;;4.85;1.35;;;;;;;;;;6287117;28;20072;-81
2022/07/12 09:29:19;;;;;;;1.83;1.20;;;;;;;;;;6288470;28;20041;-83
2022/07/12 09:39:01;;;;;;;1.50;1.15;;;;;;;;;;6279878;28;20477;-81
2022/07/12 09:42:03;;;;;;;7.87;1.43;;;;;;;;;;6275856;28;20091;-77
2022/07/12 09:45:06;;;;;;;6.28;1.40;;;;;;;;;;6276258;28;20720;-77
2022/07/12 09:48:11;;;;;;;2.03;1.00;;;;;;;;;;6277963;28;20047;-81
2022/07/12 09:51:15;;;;;;;2.38;1.23;;;;;;;;;;6279334;28;20239;-79
2022/07/12 09:54:24;;;;;;;2.00;1.35;;;;;;;;;;6275258;28;20114;-76
2022/07/12 09:57:28;;;;;;;2.53;1.30;;;;;;;;;;6278883;28;20566;-78
2022/07/12 10:00:30;;;;;;;1.92;1.15;;;;;;;;;;6277499;28;20795;-81
2022/07/12 10:03:33;;;;;;;3.97;1.10;;;;;;;;;;6275962;28;20065;-83
2022/07/12 10:06:35;;;;;;;3.22;1.13;;;;;;;;;;6278051;28;20067;-79
2022/07/12 10:09:37;;;;;;;5.60;1.60;;;;;;;;;;6276523;28;20085;-84
2022/07/12 10:12:40;;;;;;;3.45;1.60;;;;;;;;;;6276642;28;20048;-80
2022/07/12 10:15:44;;;;;;;4.22;1.42;;;;;;;;;;6275420;28;20135;-80
2022/07/12 10:18:47;;;;;;;4.65;1.48;;;;;;;;;;6276077;28;20056;-86
2022/07/12 10:21:49;;;;;;;4.25;1.30;;;;;;;;;;6277196;28;20229;-77
2022/07/12 10:24:53;;;;;;;3.35;1.63;;;;;;;;;;6273882;28;20394;-81
2022/07/12 10:27:54;;;;;;;2.25;1.50;;;;;;;;;;6275649;28;20056;-79
2022/07/12 10:30:56;;;;;;;7.18;1.60;;;;;;;;;;6280864;28;20883;-76
2022/07/12 10:34:11;;;;;;;4.57;1.70;;;;;;;;;;6277260;28;20056;-77
2022/07/12 10:37:13;;;;;;;5.35;1.50;;;;;;;;;;6275118;28;20099;-75
2022/07/12 10:40:16;;;;;;;4.15;1.45;;;;;;;;;;6271754;28;20251;-73
2022/07/12 10:46:58;;;;;;;4.03;1.40;;;;;;;;;;6270595;28;20057;-73
2022/07/12 10:50:01;;;;;;;2.25;1.20;;;;;;;;;;6275661;28;20061;-78
2022/07/12 10:53:21;;;;;;;4.25;1.20;;;;;;;;;;6274331;28;20479;-75
2022/07/12 10:56:25;;;;;;;6.07;1.70;;;;;;;;;;6269849;28;20049;-75
2022/07/12 10:59:27;;;;;;;4.93;1.40;;;;;;;;;;6273070;28;20603;-81
2022/07/12 11:02:29;;;;;;;;;;;;;;;;;;6275634;28;20335;-84
2022/07/12 11:05:32;;;;;;;2.05;1.10;;;;;;;;;;6272977;28;19929;-76
2022/07/12 11:08:48;;;;;;;4.15;1.55;;;;;;;;;;6274148;28;20142;-74
2022/07/12 11:11:51;;;;;;;5.05;1.20;;;;;;;;;;6275022;28;20053;-73
2022/07/12 11:14:53;;;;;;;4.32;1.27;;;;;;;;;;6270965;28;20060;-74
2022/07/12 11:17:55;;;;;;;4.50;1.20;;;;;;;;;;6275807;28;20052;-78
2022/07/12 11:20:59;;;;;;;2.30;1.35;;;;;;;;;;6271382;28;20056;-76
2022/07/12 11:24:02;;;;;;;1.70;1.30;;;;;;;;;;6274202;28;20332;-76
2022/07/12 11:27:04;;;;;;;1.92;1.27;;;;;;;;;;6271319;28;20041;-73
2022/07/12 11:30:08;;;;;;;4.53;1.17;;;;;;;;;;6271954;28;20209;-75
2022/07/12 11:33:10;;;;;;;2.17;1.77;;;;;;;;;;6268529;28;20071;-74
2022/07/12 11:36:13;;;;;;;2.58;1.20;;;;;;;;;;6265196;28;20041;-75
2022/07/12 11:39:15;;;;;;;3.05;1.20;;;;;;;;;;6265352;28;20048;-76
2022/07/12 11:42:17;;;;;;;5.07;1.60;;;;;;;;;;6265139;28;20049;-73
2022/07/12 11:45:18;;;;;;;3.67;1.30;;;;;;;;;;6262747;28;20052;-76
2022/07/12 11:48:20;;;;;;;3.10;1.50;;;;;;;;;;6263878;28;20056;-72
2022/07/12 11:51:23;;;;;;;;;;;;;;;;;;6263961;28;20053;-72
2022/07/12 11:54:26;;;;;;;2.38;1.30;;;;;;;;;;6264952;28;19932;-78
2022/07/12 11:57:29;;;;;;;2.55;1.58;;;;;;;;;;6273477;28;20267;-72
2022/07/12 12:00:31;;;;;;;4.05;1.45;;;;;;;;;;6270113;28;20048;-70
2022/07/12 12:03:43;;;;;;;3.47;1.33;;;;;;;;;;6269332;28;20063;-71
2022/07/12 12:06:46;;;;;;;2.10;1.40;;;;;;;;;;6268723;28;20061;-71
2022/07/12 12:10:04;;;;;;;2.67;1.63;;;;;;;;;;6269674;28;20052;-72
2022/07/12 12:13:13;;;;;;;4.38;1.27;;;;;;;;;;6268857;28;20049;-73
2022/07/12 12:16:15;;;;;;;1.90;1.30;;;;;;;;;;6268812;28;20057;-71
2022/07/12 12:19:17;;;;;;;2.78;1.35;;;;;;;;;;6273833;28;20207;-70
2022/07/12 12:22:30;;;;;;;2.40;1.83;;;;;;;;;;6270114;28;20061;-71
2022/07/12 12:25:33;;;;;;;3.00;1.42;;;;;;;;;;6268528;28;20056;-69
2022/07/12 12:28:41;;;;;;;5.75;1.58;;;;;;;;;;6268242;28;20327;-74
2022/07/12 12:31:57;;;;;;;2.47;1.48;;;;;;;;;;6269650;28;20344;-72
2022/07/12 12:35:09;;;;;;;3.95;1.70;;;;;;;;;;6266131;28;20200;-74
2022/07/12 12:38:14;;;;;;;2.97;1.40;;;;;;;;;;6269074;28;20099;-72
2022/07/12 12:41:16;;;;;;;2.75;1.35;;;;;;;;;;6267119;28;20320;-75
2022/07/12 12:44:18;;;;;;;;;;;;;;;;;;6264541;28;20058;-72
2022/07/12 12:47:31;;;;;;;;;;;;;;;;;;6272414;28;19955;-73
2022/07/12 12:50:37;;;;;;;3.67;1.60;;;;;;;;;;6271551;28;19925;-74
2022/07/12 12:53:41;;;;;;;2.05;1.40;;;;;;;;;;6272665;28;20091;-77
2022/07/12 12:56:43;;;;;;;4.00;1.60;;;;;;;;;;6269231;28;20265;-76
2022/07/12 12:59:45;;;;;;;2.72;1.70;;;;;;;;;;6268729;28;20044;-72
2022/07/12 13:02:48;;;;;;;6.47;1.67;;;;;;;;;;6270736;28;20060;-72
2022/07/12 13:05:49;;;;;;;3.95;1.70;;;;;;;;;;6270983;28;20052;-72
2022/07/12 13:08:52;;;;;;;4.30;1.35;;;;;;;;;;6269197;28;20099;-72
2022/07/12 13:11:54;;;;;;;5.50;1.60;;;;;;;;;;6271660;28;20399;-75
2022/07/12 13:14:56;;;;;;;2.45;1.80;;;;;;;;;;6270349;28;20052;-71
2022/07/12 13:17:57;;;;;;;;;;;;;;;;;;6270024;28;20060;-72
2022/07/12 13:20:59;;;;;;;3.80;2.00;;;;;;;;;;6269707;28;20203;-73
2022/07/12 13:24:02;;;;;;;5.47;1.88;;;;;;;;;;6270284;28;20057;-72
2022/07/12 13:27:04;;;;;;;3.50;1.67;;;;;;;;;;6272132;28;20048;-75
2022/07/12 13:30:09;;;;;;;2.55;1.42;;;;;;;;;;6270310;28;20092;-72
2022/07/12 13:33:11;;;;;;;2.67;1.80;;;;;;;;;;6262103;28;20072;-74
2022/07/12 13:36:12;;;;;;;3.17;1.80;;;;;;;;;;6262355;28;20048;-76
2022/07/12 13:42:35;;;;;;;5.00;1.60;;;;;;;;;;6265432;28;19924;-74
2022/07/12 13:45:36;;;;;;;2.28;1.70;;;;;;;;;;6270182;28;20095;-75
2022/07/12 13:48:38;;;;;;;3.35;1.70;;;;;;;;;;6268778;28;20044;-72
2022/07/12 13:51:39;;;;;;;;;;;;;;;;;;6273804;28;20295;-75
2022/07/12 13:54:43;;;;;;;3.22;1.63;;;;;;;;;;6269834;28;19974;-75
2022/07/12 13:57:46;;;;;;;4.65;1.60;;;;;;;;;;6273397;28;20060;-72
2022/07/12 14:00:48;;;;;;;5.30;1.80;;;;;;;;;;6268815;28;20053;-72
2022/07/12 14:03:50;;;;;;;2.97;1.60;;;;;;;;;;6272800;28;20536;-72
2022/07/12 14:06:51;;;;;;;2.35;1.80;;;;;;;;;;6273214;28;20064;-72
2022/07/12 14:09:54;;;;;;;7.38;1.92;;;;;;;;;;6275878;28;20057;-73
2022/07/12 14:12:56;;;;;;;2.78;1.90;;;;;;;;;;6273797;28;20060;-72
2022/07/12 14:15:59;;;;;;;5.85;2.05;;;;;;;;;;6272461;28;20041;-72
2022/07/12 14:19:01;;;;;;;3.15;1.80;;;;;;;;;;6272420;28;20409;-72
2022/07/12 14:22:02;;;;;;;4.20;2.28;;;;;;;;;;6270904;28;20347;-72
2022/07/12 14:25:07;;;;;;;4.18;1.88;;;;;;;;;;6272097;28;20053;-73
2022/07/12 14:28:09;;;;;;;4.07;1.73;;;;;;;;;;6270980;28;20340;-72
2022/07/12 14:31:10;;;;;;;5.43;1.80;;;;;;;;;;6269652;28;20110;-76
2022/07/12 14:34:12;;;;;;;5.35;1.92;;;;;;;;;;6270394;28;20056;-79
2022/07/12 14:37:14;;;;;;;4.10;1.90;;;;;;;;;;6274605;28;20044;-76
2022/07/12 14:40:17;;;;;;;3.83;2.25;;;;;;;;;;6276463;28;20374;-75
2022/07/12 14:43:19;;;;;;;7.18;2.15;;;;;;;;;;6271662;28;20091;-75
2022/07/12 14:46:22;;;;;;;3.33;1.83;;;;;;;;;;6274375;28;20053;-75
2022/07/12 14:49:23;;;;;;;6.05;2.50;;;;;;;;;;6275176;28;20051;-74
2022/07/12 14:52:25;;;;;;;4.15;2.03;;;;;;;;;;6274021;28;20048;-75
2022/07/12 14:55:28;;;;;;;2.53;2.13;;;;;;;;;;6270937;28;20057;-76
2022/07/12 14:58:30;;;;;;;3.08;2.00;;;;;;;;;;6273784;28;20052;-75
2022/07/12 15:01:32;;;;;;;4.47;2.65;;;;;;;;;;6273175;28;20130;-73
2022/07/12 15:04:33;;;;;;;6.03;2.20;;;;;;;;;;6270471;28;20049;-74
2022/07/12 15:07:35;;;;;;;2.13;1.70;;;;;;;;;;6277610;28;20065;-75
2022/07/12 15:10:38;;;;;;;3.08;2.22;;;;;;;;;;6270652;28;20396;-76
2022/07/12 15:13:40;;;;;;;5.25;2.20;;;;;;;;;;6276200;28;20061;-74
2022/07/12 15:16:42;;;;;;;5.15;2.33;;;;;;;;;;6274717;28;20107;-74
2022/07/12 15:19:43;;;;;;;3.33;2.00;;;;;;;;;;6273461;28;20053;-79
2022/07/12 15:22:45;;;;;;;3.27;1.90;;;;;;;;;;6272148;28;20053;-73
2022/07/12 15:25:48;;;;;;;6.07;2.40;;;;;;;;;;6271441;28;20126;-76
2022/07/12 15:28:52;;;;;;;7.05;2.55;;;;;;;;;;6270936;28;20055;-73
2022/07/12 15:31:53;;;;;;;6.40;2.33;;;;;;;;;;6270795;28;20044;-77
2022/07/12 15:34:56;;;;;;;4.17;2.37;;;;;;;;;;6270280;28;20057;-76
2022/07/12 15:37:57;;;;;;;;;;;;;;;;;;6268427;28;20057;-73
2022/07/12 15:41:00;;;;;;;4.00;2.25;;;;;;;;;;6286103;28;20175;-73
2022/07/12 15:44:03;;;;;;;5.32;2.70;;;;;;;;;;6273929;28;20401;-73
2022/07/12 15:47:05;;;;;;;;;;;;;;;;;;6272322;28;20055;-75
2022/07/12 15:50:08;;;;;;;4.60;2.63;;;;;;;;;;6269660;28;19963;-76
2022/07/12 15:53:28;;;;;;;;;;;;;;;;;;6268381;28;20427;-79
2022/07/12 15:56:31;;;;;;;3.75;2.22;;;;;;;;;;6273869;28;19924;-73
2022/07/12 15:59:33;;;;;;;3.35;2.10;;;;;;;;;;6280951;28;20760;-75
2022/07/12 16:02:35;;;;;;;4.43;2.43;;;;;;;;;;6274445;28;20064;-73
2022/07/12 16:05:37;;;;;;;2.83;2.25;;;;;;;;;;6273265;28;20161;-72
2022/07/12 16:08:41;;;;;;;4.23;2.37;;;;;;;;;;6277880;28;20079;-73
2022/07/12 16:11:44;;;;;;;5.30;2.80;;;;;;;;;;6276124;28;20731;-75
2022/07/12 16:14:46;;;;;;;7.05;2.40;;;;;;;;;;6274524;28;20270;-76
2022/07/12 16:17:48;;;;;;;5.15;2.38;;;;;;;;;;6276641;28;20076;-74
2022/07/12 16:20:49;;;;;;;5.13;2.35;;;;;;;;;;6275716;28;20057;-73
2022/07/12 16:23:51;;;;;;;6.40;2.45;;;;;;;;;;6278167;28;20090;-74
2022/07/12 16:26:54;;;;;;;5.43;2.38;;;;;;;;;;6271530;28;20057;-76
2022/07/12 16:29:56;;;;;;;11.20;2.90;;;;;;;;;;6268505;28;20049;-75
2022/07/12 16:32:58;;;;;;;3.42;2.50;;;;;;;;;;6267450;28;20056;-74
2022/07/12 16:36:00;;;;;;;4.85;2.90;;;;;;;;;;6271378;28;20789;-74
2022/07/12 16:39:02;;;;;;;4.07;2.33;;;;;;;;;;6274095;28;20115;-74
2022/07/12 16:42:06;;;;;;;5.95;2.55;;;;;;;;;;6278277;28;20056;-74
2022/07/12 16:45:08;;;;;;;5.35;2.40;;;;;;;;;;6275941;28;20247;-73
2022/07/12 16:48:10;;;;;;;8.50;2.50;;;;;;;;;;6274569;28;20064;-74
2022/07/12 16:51:24;;;;;;;3.88;2.53;;;;;;;;;;6268010;28;20048;-74
2022/07/12 16:54:26;;;;;;;3.53;2.28;;;;;;;;;;6269618;28;20125;-76
2022/07/12 16:57:29;;;;;;;4.32;2.30;;;;;;;;;;6272404;28;20057;-77
2022/07/12 17:00:31;;;;;;;2.70;2.50;;;;;;;;;;6277269;28;20075;-75
2022/07/12 17:03:33;;;;;;;6.05;2.40;;;;;;;;;;6272019;28;20068;-74
2022/07/12 17:06:35;;;;;;;7.05;2.25;;;;;;;;;;6273518;28;20232;-75
2022/07/12 17:09:37;;;;;;;4.88;3.40;;;;;;;;;;6270289;28;20059;-74
2022/07/12 17:12:40;;;;;;;5.80;2.90;;;;;;;;;;6274783;28;20066;-73
2022/07/12 17:15:42;;;;;;;3.45;2.67;;;;;;;;;;6271606;28;20068;-74
2022/07/12 17:18:44;;;;;;;4.90;2.60;;;;;;;;;;6268532;28;20433;-73
2022/07/12 17:21:46;;;;;;;7.53;2.47;;;;;;;;;;6272119;28;20057;-82
2022/07/12 17:24:47;;;;;;;4.88;2.40;;;;;;;;;;6267289;28;20057;-72
2022/07/12 17:27:50;;;;;;;5.80;2.67;;;;;;;;;;6269473;28;20583;-75
2022/07/12 17:30:53;;;;;;;5.03;2.85;;;;;;;;;;6263685;28;20053;-75
2022/07/12 17:33:55;;;;;;;;;;;;;;;;;;6268754;28;20052;-73
2022/07/12 17:36:57;;;;;;;6.65;3.60;;;;;;;;;;6268727;28;19960;-75
2022/07/12 17:39:59;;;;;;;;;;;;;;;;;;6272043;28;20060;-73
2022/07/12 17:43:02;;;;;;;4.72;2.42;;;;;;;;;;6271580;28;20103;-75
2022/07/12 17:46:04;;;;;;;3.58;2.30;;;;;;;;;;6270862;28;20067;-76
2022/07/12 17:49:06;;;;;;;6.40;2.38;;;;;;;;;;6265503;28;20057;-81
2022/07/12 17:52:07;;;;;;;8.00;2.53;;;;;;;;;;6275675;28;20036;-74
2022/07/12 17:55:13;;;;;;;3.75;2.53;;;;;;;;;;6273628;28;20053;-74
2022/07/12 18:01:36;;;;;;;7.47;2.88;;;;;;;;;;6272360;28;20045;-78
2022/07/12 18:04:37;;;;;;;4.72;2.50;;;;;;;;;;6270087;28;20060;-75
2022/07/12 18:07:39;;;;;;;3.17;2.50;;;;;;;;;;6273342;28;20060;-82
2022/07/12 18:10:41;;;;;;;6.28;2.40;;;;;;;;;;6272667;28;20060;-79
2022/07/12 18:20:22;;;;;;;4.40;2.50;;;;;;;;;;6265784;28;20056;-80
2022/07/12 18:23:23;;;;;;;6.85;2.70;;;;;;;;;;6261638;28;20076;-81
2022/07/12 18:26:25;;;;;;;5.20;2.55;;;;;;;;;;6263049;28;20503;-78
2022/07/12 18:29:29;;;;;;;3.05;2.28;;;;;;;;;;6262891;28;20049;-76
2022/07/12 18:32:30;;;;;;;4.03;2.45;;;;;;;;;;6265072;28;20075;-78
2022/07/12 18:35:32;;;;;;;4.03;2.40;;;;;;;;;;6268089;28;20064;-77
2022/07/12 18:38:34;;;;;;;7.00;2.67;;;;;;;;;;6267671;28;20378;-75
2022/07/12 18:41:35;;;;;;;2.65;2.33;;;;;;;;;;6271850;28;20676;-84
2022/07/12 18:44:38;;;;;;;9.30;2.65;;;;;;;;;;6266876;28;20045;-77
2022/07/12 18:47:40;;;;;;;6.70;3.03;;;;;;;;;;6268397;28;20053;-74
2022/07/12 18:50:42;;;;;;;8.07;2.70;;;;;;;;;;6267138;28;21113;-75
2022/07/12 18:53:43;;;;;;;5.20;2.80;;;;;;;;;;6269010;28;20216;-75
2022/07/12 18:56:45;;;;;;;4.95;2.83;;;;;;;;;;6268395;28;20056;-75